Time;durP1;ratioP1;P1;durP2;ratioP2;P2;SDS_P1;SDS_P2;PMS_P1;PMS_P2;Temp;Humidity;BMP_temperature;BMP_pressure;BME280_temperature;BME280_humidity;BME280_pressure;Samples;Min_cycle;Max_cycle;Signal;HPM_P1;HPM_P2
2023/05/29 00:01:28;;;;;;;15.98;7.75;;;;;;;12.23;91.86;102179.72;5027536;28;20052;-74
2023/05/29 00:03:53;;;;;;;15.85;7.93;;;;;;;12.16;92.53;102177.56;5028440;28;20152;-75
2023/05/29 00:06:19;;;;;;;17.33;7.72;;;;;;;12.12;92.54;102182.16;5028766;28;20486;-76
2023/05/29 00:08:45;;;;;;;17.60;7.88;;;;;;;12.03;92.57;102197.69;5028902;28;20076;-75
2023/05/29 00:11:13;;;;;;;16.10;7.38;;;;;;;12.02;92.46;102194.19;5029731;28;20050;-75
2023/05/29 00:13:38;;;;;;;15.40;6.93;;;;;;;11.94;91.64;102204.31;5029856;28;20448;-75
2023/05/29 00:16:04;;;;;;;18.98;7.38;;;;;;;11.85;91.84;102195.16;5029533;28;20029;-74
2023/05/29 00:18:30;;;;;;;20.30;6.75;;;;;;;11.84;91.36;102204.00;5033857;28;20480;-75
2023/05/29 00:20:55;;;;;;;14.45;6.10;;;;;;;11.81;91.32;102200.69;5033506;28;20124;-75
2023/05/29 00:23:21;;;;;;;16.63;6.43;;;;;;;11.72;91.89;102198.56;5033020;28;20083;-75
2023/05/29 00:25:46;;;;;;;17.92;6.00;;;;;;;11.70;92.21;102198.66;5032024;28;20019;-75
2023/05/29 00:28:12;;;;;;;15.48;6.43;;;;;;;11.66;92.73;102198.91;5033748;28;20027;-75
2023/05/29 00:30:38;;;;;;;17.73;6.90;;;;;;;11.66;93.28;102204.19;5032315;28;20017;-74
2023/05/29 00:33:03;;;;;;;18.70;6.65;;;;;;;11.58;93.42;102208.09;5031926;28;20021;-75
2023/05/29 00:35:32;;;;;;;18.20;6.95;;;;;;;11.51;93.48;102212.00;5032641;28;20040;-75
2023/05/29 00:37:58;;;;;;;15.57;6.70;;;;;;;11.50;92.71;102204.19;5031404;28;20036;-74
2023/05/29 00:40:23;;;;;;;16.02;5.78;;;;;;;11.43;91.24;102214.22;5014489;28;20474;-74
2023/05/29 00:42:49;;;;;;;19.35;5.43;;;;;;;11.38;89.67;102216.28;5031854;28;20333;-75
2023/05/29 00:45:14;;;;;;;20.98;5.65;;;;;;;11.37;89.30;102213.72;5031326;28;20024;-75
2023/05/29 00:47:41;;;;;;;19.05;5.78;;;;;;;11.27;88.76;102216.88;5032105;28;20359;-74
2023/05/29 00:50:10;;;;;;;18.83;5.57;;;;;;;11.23;88.18;102225.88;5030777;28;20021;-74
2023/05/29 00:52:37;;;;;;;13.98;5.18;;;;;;;11.18;88.16;102229.69;5031143;28;20025;-74
2023/05/29 00:55:04;;;;;;;17.08;5.55;;;;;;;11.15;87.68;102230.69;5031146;28;20025;-74
2023/05/29 00:57:30;;;;;;;18.63;5.10;;;;;;;11.14;87.07;102226.34;5031553;28;20052;-74
2023/05/29 00:59:58;;;;;;;14.23;5.10;;;;;;;11.11;86.50;102228.31;5013906;28;20108;-74
2023/05/29 01:02:25;;;;;;;16.95;4.88;;;;;;;11.05;85.95;102233.91;5013216;28;20025;-74
2023/05/29 01:04:54;;;;;;;19.08;5.82;;;;;;;11.02;86.16;102232.28;5012552;28;20029;-74
2023/05/29 01:07:20;;;;;;;16.48;4.45;;;;;;;10.95;86.19;102238.81;5013680;28;20725;-74
2023/05/29 01:09:45;;;;;;;16.52;4.93;;;;;;;10.90;85.89;102235.59;5014798;28;20041;-74
2023/05/29 01:12:25;;;;;;;18.35;4.70;;;;;;;10.88;85.71;102245.34;5031630;28;20410;-74
2023/05/29 01:15:13;;;;;;;15.73;5.22;;;;;;;10.84;85.43;102246.44;5031162;28;20028;-74
2023/05/29 01:18:01;;;;;;;19.50;5.07;;;;;;;10.81;85.62;102246.63;5021799;28;20047;-74
2023/05/29 01:21:14;;;;;;;17.38;4.93;;;;;;;10.77;85.70;102250.31;5031864;28;20100;-74
2023/05/29 01:23:48;;;;;;;16.27;5.07;;;;;;;10.65;86.03;102252.66;4952056;29;20046;-74
2023/05/29 01:26:51;;;;;;;20.05;5.00;;;;;;;10.65;86.19;102257.91;5026382;28;20040;-73
2023/05/29 01:29:27;;;;;;;18.02;5.18;;;;;;;10.64;86.63;102248.31;5031159;28;20445;-74
2023/05/29 01:31:53;;;;;;;18.83;4.90;;;;;;;10.54;87.13;102247.09;5031923;28;20017;-75
2023/05/29 01:34:19;;;;;;;18.10;5.05;;;;;;;10.52;86.80;102250.75;5031398;28;20498;-75
2023/05/29 01:36:46;;;;;;;18.13;5.32;;;;;;;10.46;87.67;102253.69;5030809;28;20017;-74
2023/05/29 01:39:12;;;;;;;18.95;5.55;;;;;;;10.45;87.50;102250.22;5012814;28;20021;-74
2023/05/29 01:41:39;;;;;;;15.95;4.60;;;;;;;10.40;88.17;102252.19;5030278;28;20033;-74
2023/05/29 01:44:09;;;;;;;22.20;5.55;;;;;;;10.35;88.11;102252.44;5030688;28;20544;-74
2023/05/29 01:46:45;;;;;;;21.15;5.22;;;;;;;10.36;88.28;102251.50;5031250;28;20112;-74
2023/05/29 01:49:11;;;;;;;18.55;4.75;;;;;;;10.33;88.32;102246.41;5030164;28;20087;-74
2023/05/29 01:51:41;;;;;;;24.17;5.43;;;;;;;10.30;88.42;102249.19;5030838;28;20053;-74
2023/05/29 01:54:06;;;;;;;18.48;5.20;;;;;;;10.28;88.82;102244.94;5028613;28;20033;-74
2023/05/29 01:56:34;;;;;;;18.27;4.70;;;;;;;10.23;88.94;102244.31;5031119;28;20032;-74
2023/05/29 01:59:03;;;;;;;17.38;4.95;;;;;;;10.22;89.14;102247.88;5030113;28;20398;-74
2023/05/29 02:01:31;;;;;;;16.92;5.25;;;;;;;10.18;89.33;102241.03;5030409;28;20489;-74
2023/05/29 02:03:56;;;;;;;19.27;4.57;;;;;;;10.18;88.78;102244.53;5030416;28;20485;-74
2023/05/29 02:06:22;;;;;;;19.55;4.80;;;;;;;10.13;88.70;102246.53;5030516;28;20041;-74
2023/05/29 02:08:47;;;;;;;17.85;5.03;;;;;;;10.14;89.35;102244.75;5012099;28;20033;-74
2023/05/29 02:11:13;;;;;;;20.98;4.75;;;;;;;10.13;89.18;102248.31;5030276;28;20474;-74
2023/05/29 02:13:39;;;;;;;22.67;5.28;;;;;;;10.10;88.93;102248.47;5029643;28;20025;-74
2023/05/29 02:16:04;;;;;;;23.73;5.40;;;;;;;10.05;89.40;102257.44;5012823;28;20129;-74
2023/05/29 02:18:30;;;;;;;20.33;5.18;;;;;;;10.00;89.17;102248.03;5031479;28;20034;-74
2023/05/29 02:21:02;;;;;;;22.23;4.95;;;;;;;10.04;89.38;102249.63;5030110;28;20092;-74
2023/05/29 02:23:27;;;;;;;15.07;4.65;;;;;;;9.98;89.54;102250.75;5031246;28;20029;-74
2023/05/29 02:25:53;;;;;;;18.42;4.68;;;;;;;9.94;89.49;102254.47;5030789;28;20498;-74
2023/05/29 02:28:18;;;;;;;20.52;4.88;;;;;;;9.95;89.71;102261.41;5031374;28;20108;-74
2023/05/29 02:30:44;;;;;;;21.15;5.22;;;;;;;9.89;89.77;102260.88;5030748;28;20021;-74
2023/05/29 02:33:09;;;;;;;20.15;4.38;;;;;;;9.89;89.60;102256.47;5030703;28;20025;-74
2023/05/29 02:35:35;;;;;;;21.67;5.07;;;;;;;9.85;89.97;102260.16;5029821;28;20091;-74
2023/05/29 02:38:00;;;;;;;20.23;4.78;;;;;;;9.84;89.91;102257.63;5010983;28;20436;-74
2023/05/29 02:40:26;;;;;;;20.35;5.10;;;;;;;9.81;89.79;102261.25;5012381;28;20444;-74
2023/05/29 02:42:51;;;;;;;19.58;5.30;;;;;;;9.79;89.85;102264.88;5029459;28;20071;-74
2023/05/29 02:45:17;;;;;;;21.95;5.07;;;;;;;9.71;90.37;102266.09;5011304;28;20025;-74
2023/05/29 02:47:42;;;;;;;18.08;4.90;;;;;;;9.67;90.12;102268.94;5028148;28;20021;-74
2023/05/29 02:50:08;;;;;;;18.33;4.65;;;;;;;9.63;90.43;102272.63;5010559;28;20036;-74
2023/05/29 02:52:34;;;;;;;20.30;4.70;;;;;;;9.58;90.40;102271.97;5012324;28;20060;-74
2023/05/29 02:55:03;;;;;;;17.23;4.30;;;;;;;9.55;90.62;102274.75;5029004;28;20053;-74
2023/05/29 02:57:32;;;;;;;17.50;4.68;;;;;;;9.54;90.51;102278.31;5029472;28;20037;-74
2023/05/29 02:59:57;;;;;;;19.92;4.72;;;;;;;9.53;90.45;102276.59;5011825;28;20017;-74
2023/05/29 03:02:23;;;;;;;18.65;4.43;;;;;;;9.47;90.75;102276.88;5028259;28;20025;-74
2023/05/29 03:04:52;;;;;;;21.10;5.00;;;;;;;9.46;90.99;102277.81;5028457;28;20372;-74
2023/05/29 03:07:18;;;;;;;22.48;5.53;;;;;;;9.37;91.01;102279.94;5028069;28;20444;-74
2023/05/29 03:09:43;;;;;;;19.52;4.93;;;;;;;9.37;90.99;102277.31;5029432;28;20045;-74
2023/05/29 03:12:09;;;;;;;25.08;4.65;;;;;;;9.36;91.37;102277.41;5029020;28;20359;-74
2023/05/29 03:14:35;;;;;;;23.15;5.13;;;;;;;9.32;91.49;102276.69;5030691;28;20417;-74
2023/05/29 03:17:03;;;;;;;20.00;5.50;;;;;;;9.28;91.97;102285.63;5029690;28;20029;-73
2023/05/29 03:19:32;;;;;;;21.88;4.95;;;;;;;9.30;92.21;102277.69;5030283;28;20018;-74
2023/05/29 03:21:58;;;;;;;18.17;5.03;;;;;;;9.29;92.04;102271.56;5012840;28;20026;-74
2023/05/29 03:24:23;;;;;;;18.52;4.80;;;;;;;9.29;92.27;102268.94;5012371;28;20028;-74
2023/05/29 03:26:49;;;;;;;25.10;6.00;;;;;;;9.24;92.60;102286.69;5010981;28;20398;-74
2023/05/29 03:29:16;;;;;;;23.17;4.90;;;;;;;9.24;92.85;102278.81;5030258;28;20030;-74
2023/05/29 03:31:41;;;;;;;25.15;5.30;;;;;;;9.20;93.50;102282.47;5030129;28;20099;-74
2023/05/29 03:34:07;;;;;;;21.35;5.03;;;;;;;9.19;92.96;102282.53;5028969;28;20561;-74
2023/05/29 03:36:33;;;;;;;24.40;5.03;;;;;;;9.16;93.43;102275.66;5030247;28;20036;-74
2023/05/29 03:38:58;;;;;;;21.90;4.85;;;;;;;9.14;93.81;102282.75;5029917;28;20021;-74
2023/05/29 03:41:23;;;;;;;22.20;4.93;;;;;;;9.16;93.98;102278.28;5010565;28;20394;-74
2023/05/29 03:43:50;;;;;;;21.33;5.13;;;;;;;9.14;94.01;102285.38;5027664;28;20029;-74
2023/05/29 03:46:16;;;;;;;25.08;5.32;;;;;;;9.14;94.29;102282.75;5010307;28;20025;-76
2023/05/29 03:48:41;;;;;;;22.45;5.13;;;;;;;9.16;94.52;102290.56;5028714;28;20386;-74
2023/05/29 03:51:06;;;;;;;23.25;5.32;;;;;;;9.13;94.58;102286.31;5027985;28;20021;-74
2023/05/29 03:53:32;;;;;;;19.55;4.82;;;;;;;9.15;94.70;102289.72;5028422;28;20033;-73
2023/05/29 03:55:57;;;;;;;23.65;6.20;;;;;;;9.14;95.18;102287.16;5027617;28;20029;-73
2023/05/29 03:58:22;;;;;;;20.23;5.18;;;;;;;9.14;95.30;102295.88;5028825;28;20022;-73
2023/05/29 04:00:51;;;;;;;18.88;5.43;;;;;;;9.14;94.94;102298.50;5028392;28;20037;-73
2023/05/29 04:03:17;;;;;;;27.17;5.65;;;;;;;9.16;95.19;102296.66;5027522;28;20386;-73
2023/05/29 04:05:42;;;;;;;21.75;5.30;;;;;;;9.27;94.75;102301.47;5028624;28;20048;-72
2023/05/29 04:08:08;;;;;;;25.63;5.82;;;;;;;9.50;93.86;102297.75;5026307;28;20647;-73
2023/05/29 04:10:34;;;;;;;21.20;5.07;;;;;;;9.70;92.90;102302.97;5029112;28;20414;-73
2023/05/29 04:13:02;;;;;;;18.73;5.00;;;;;;;9.86;91.67;102300.44;5029152;28;20033;-73
2023/05/29 04:15:27;;;;;;;23.15;5.47;;;;;;;10.00;90.95;102311.16;5029458;28;20021;-73
2023/05/29 04:17:54;;;;;;;25.55;5.82;;;;;;;10.10;90.11;102309.81;5011542;28;20382;-73
2023/05/29 04:20:20;;;;;;;23.42;5.10;;;;;;;9.98;90.55;102307.75;5029705;28;20179;-74
2023/05/29 04:22:46;;;;;;;24.65;5.32;;;;;;;9.98;90.72;102313.84;5029041;28;20025;-74
2023/05/29 04:25:11;;;;;;;20.40;5.13;;;;;;;9.87;90.95;102316.16;5029030;28;20382;-73
2023/05/29 04:27:37;;;;;;;23.73;5.25;;;;;;;9.78;91.60;102316.59;5029653;28;20025;-73
2023/05/29 04:30:06;;;;;;;17.33;4.93;;;;;;;9.74;91.61;102315.88;5028424;28;20018;-74
2023/05/29 04:32:33;;;;;;;25.67;5.65;;;;;;;9.61;92.04;102319.16;5029799;28;20112;-75
2023/05/29 04:35:02;;;;;;;26.48;5.88;;;;;;;9.55;92.50;102319.41;5027987;28;20441;-72
2023/05/29 04:37:29;;;;;;;20.42;4.88;;;;;;;9.42;92.63;102327.88;5029078;28;20060;-73
2023/05/29 04:39:58;;;;;;;24.55;5.63;;;;;;;9.49;92.65;102324.97;5029423;28;20117;-73
2023/05/29 04:42:24;;;;;;;28.75;5.35;;;;;;;9.47;92.89;102326.81;5029425;28;20025;-73
2023/05/29 04:44:52;;;;;;;21.33;5.22;;;;;;;9.42;92.66;102327.03;5010830;28;20040;-73
2023/05/29 04:47:18;;;;;;;21.80;5.18;;;;;;;9.45;93.06;102328.66;5028402;28;20029;-73
2023/05/29 04:49:48;;;;;;;21.40;5.10;;;;;;;9.42;92.82;102325.25;5027553;28;20018;-73
2023/05/29 04:52:15;;;;;;;29.30;6.03;;;;;;;9.47;92.99;102326.81;5010268;28;20128;-74
2023/05/29 04:54:40;;;;;;;23.05;5.43;;;;;;;9.49;93.05;102330.22;5028550;28;20041;-73
2023/05/29 04:57:06;;;;;;;19.38;4.85;;;;;;;9.53;92.58;102332.63;5027205;28;20037;-73
2023/05/29 04:59:31;;;;;;;23.13;5.45;;;;;;;9.51;92.52;102325.75;5010845;28;20515;-76
2023/05/29 05:01:56;;;;;;;21.23;5.18;;;;;;;9.57;92.63;102333.34;5028469;28;20453;-73
2023/05/29 05:04:22;;;;;;;23.40;5.32;;;;;;;9.57;91.87;102328.09;5030998;28;20033;-73
2023/05/29 05:06:52;;;;;;;26.77;5.35;;;;;;;9.53;92.00;102331.78;5030451;28;20378;-76
2023/05/29 05:09:18;;;;;;;18.02;4.65;;;;;;;9.55;91.98;102324.69;5030179;28;20038;-76
2023/05/29 05:11:43;;;;;;;21.45;5.50;;;;;;;9.59;91.62;102334.13;5031276;28;20052;-72
2023/05/29 05:14:09;;;;;;;23.08;5.47;;;;;;;9.64;91.49;102332.16;5030245;28;20520;-73
2023/05/29 05:16:34;;;;;;;23.25;5.95;;;;;;;9.67;91.55;102337.28;5031833;28;20037;-73
2023/05/29 05:19:02;;;;;;;22.00;5.32;;;;;;;9.68;91.39;102338.97;5030582;28;20614;-73
2023/05/29 05:21:31;;;;;;;20.10;5.07;;;;;;;9.80;91.21;102346.28;5032261;28;20035;-73
2023/05/29 05:23:56;;;;;;;23.20;5.03;;;;;;;9.86;91.08;102340.72;5030160;28;20096;-73
2023/05/29 05:26:22;;;;;;;27.85;5.15;;;;;;;9.88;90.38;102348.53;5031367;28;20017;-73
2023/05/29 05:28:47;;;;;;;22.63;5.38;;;;;;;9.98;90.77;102345.41;5032614;28;20022;-73
2023/05/29 05:31:13;;;;;;;20.95;4.78;;;;;;;10.05;90.00;102346.00;5032237;28;20022;-73
2023/05/29 05:33:38;;;;;;;20.98;4.82;;;;;;;10.08;89.76;102360.78;5031854;28;20040;-74
2023/05/29 05:36:03;;;;;;;20.67;5.40;;;;;;;10.16;89.89;102359.47;5031974;28;20025;-74
2023/05/29 05:38:32;;;;;;;22.38;5.05;;;;;;;10.17;89.26;102358.53;5032669;28;20053;-75
2023/05/29 05:40:57;;;;;;;20.33;5.13;;;;;;;10.24;88.96;102361.75;5031574;28;20021;-74
2023/05/29 05:43:23;;;;;;;23.58;5.38;;;;;;;10.32;88.72;102360.47;5032245;28;20026;-73
2023/05/29 05:45:51;;;;;;;22.02;4.93;;;;;;;10.33;87.88;102362.16;5013518;28;20504;-74
2023/05/29 05:48:16;;;;;;;23.83;5.30;;;;;;;10.35;87.62;102359.44;5031495;28;20083;-74
2023/05/29 05:50:42;;;;;;;25.00;5.32;;;;;;;10.42;86.92;102354.78;5029776;28;20029;-74
2023/05/29 05:53:07;;;;;;;22.60;5.38;;;;;;;10.41;86.84;102361.81;5029960;28;20033;-74
2023/05/29 05:55:33;;;;;;;21.83;5.20;;;;;;;10.46;86.79;102357.16;5030013;28;20017;-74
2023/05/29 05:57:58;;;;;;;28.92;5.88;;;;;;;10.43;85.72;102359.97;5030565;28;20500;-74
2023/05/29 06:00:24;;;;;;;18.35;4.47;;;;;;;10.48;85.37;102350.06;5012653;28;20024;-74
2023/05/29 06:02:50;;;;;;;23.60;5.40;;;;;;;10.54;85.23;102347.13;5030589;28;20040;-74
2023/05/29 06:05:16;;;;;;;25.35;5.70;;;;;;;10.55;84.74;102346.19;5030557;28;20073;-74
2023/05/29 06:07:41;;;;;;;19.83;5.38;;;;;;;10.66;85.14;102346.50;5029996;28;20541;-73
2023/05/29 06:10:07;;;;;;;22.80;4.90;;;;;;;10.72;84.86;102353.22;5028830;28;20029;-74
2023/05/29 06:12:34;;;;;;;27.55;5.15;;;;;;;10.85;84.90;102350.84;5030924;28;20029;-74
2023/05/29 06:15:04;;;;;;;19.30;4.78;;;;;;;10.89;84.11;102362.91;5028491;28;20067;-74
2023/05/29 06:17:32;;;;;;;20.58;4.95;;;;;;;10.94;84.45;102364.38;5013368;28;20393;-74
2023/05/29 06:19:57;;;;;;;18.35;4.43;;;;;;;11.06;84.20;102364.69;5012669;28;20109;-74
2023/05/29 06:22:23;;;;;;;19.98;4.82;;;;;;;11.12;83.03;102365.19;5030064;28;20565;-74
2023/05/29 06:24:51;;;;;;;21.42;5.20;;;;;;;11.19;82.09;102363.94;5030560;28;20029;-74
2023/05/29 06:27:17;;;;;;;24.77;5.50;;;;;;;11.26;82.65;102368.00;5031062;28;20079;-74
2023/05/29 06:29:43;;;;;;;18.85;4.82;;;;;;;11.33;82.44;102372.94;5013295;28;20026;-74
2023/05/29 06:32:09;;;;;;;24.15;4.50;;;;;;;11.34;80.96;102370.22;5029684;28;20026;-74
2023/05/29 06:34:34;;;;;;;17.77;4.53;;;;;;;11.36;80.67;102380.69;5013768;28;20021;-74
2023/05/29 06:37:02;;;;;;;19.30;4.25;;;;;;;11.38;80.57;102379.66;5014815;28;20029;-74
2023/05/29 06:39:28;;;;;;;21.58;4.85;;;;;;;11.47;81.65;102373.03;5011976;28;20545;-74
2023/05/29 06:41:53;;;;;;;22.92;5.22;;;;;;;11.46;79.52;102379.25;5010965;28;20030;-74
2023/05/29 06:44:19;;;;;;;22.85;4.72;;;;;;;11.52;78.88;102376.28;4992729;28;20032;-74
2023/05/29 06:46:44;;;;;;;23.10;5.85;;;;;;;11.60;79.08;102387.25;5010187;28;20460;-74
2023/05/29 06:49:10;;;;;;;25.92;4.97;;;;;;;11.59;78.13;102382.94;5013211;28;20050;-74
2023/05/29 06:51:36;;;;;;;19.95;4.93;;;;;;;11.67;77.62;102386.03;5030096;28;20436;-74
2023/05/29 06:54:01;;;;;;;17.75;4.45;;;;;;;11.74;77.40;102381.28;5029154;28;20029;-74
2023/05/29 06:56:28;;;;;;;22.00;4.70;;;;;;;11.77;76.18;102395.13;5029585;28;20018;-74
2023/05/29 06:58:53;;;;;;;19.75;4.40;;;;;;;11.92;76.92;102386.41;5029492;28;20036;-74
2023/05/29 07:01:19;;;;;;;19.58;4.47;;;;;;;11.89;74.84;102388.38;5029792;28;20477;-74
2023/05/29 07:03:46;;;;;;;16.80;4.55;;;;;;;12.03;74.69;102382.34;5027806;28;20036;-74
2023/05/29 07:06:12;;;;;;;26.45;5.38;;;;;;;12.22;74.41;102383.00;5028964;28;20532;-74
2023/05/29 07:08:37;;;;;;;16.88;4.00;;;;;;;12.28;72.46;102387.94;5029444;28;20057;-73
2023/05/29 07:11:03;;;;;;;18.30;3.85;;;;;;;12.42;72.32;102380.13;5028333;28;20441;-73
2023/05/29 07:13:28;;;;;;;18.85;4.30;;;;;;;12.54;70.79;102379.41;5029612;28;20467;-74
2023/05/29 07:15:53;;;;;;;16.80;4.32;;;;;;;12.71;71.02;102377.56;5027827;28;20032;-74
2023/05/29 07:18:19;;;;;;;21.52;4.90;;;;;;;12.95;71.38;102384.06;5028622;28;20240;-74
2023/05/29 07:20:44;;;;;;;13.60;3.60;;;;;;;13.17;70.14;102387.13;5028363;28;20025;-73
2023/05/29 07:23:10;;;;;;;17.33;4.15;;;;;;;13.34;68.63;102374.69;5029059;28;20029;-74
2023/05/29 07:25:36;;;;;;;15.02;4.18;;;;;;;13.40;66.19;102376.97;5028857;28;20018;-74
2023/05/29 07:28:01;;;;;;;15.75;3.90;;;;;;;13.55;66.72;102383.94;5029438;28;20032;-74
2023/05/29 07:30:27;;;;;;;16.90;4.20;;;;;;;13.62;65.96;102384.44;5030629;28;20026;-74
2023/05/29 07:32:53;;;;;;;18.55;4.28;;;;;;;13.64;66.00;102385.19;5011302;28;20033;-73
2023/05/29 07:35:18;;;;;;;18.55;3.60;;;;;;;13.69;66.01;102386.59;5029921;28;20026;-74
2023/05/29 07:37:43;;;;;;;12.82;3.88;;;;;;;13.92;65.51;102377.19;5030211;28;20029;-74
2023/05/29 07:40:11;;;;;;;17.65;4.10;;;;;;;14.09;64.80;102392.88;5027585;28;20026;-74
2023/05/29 07:42:38;;;;;;;14.13;4.20;;;;;;;14.29;64.13;102388.91;5012152;28;20029;-73
2023/05/29 07:45:04;;;;;;;16.58;3.97;;;;;;;14.46;63.57;102390.53;5011795;28;20033;-74
2023/05/29 07:47:31;;;;;;;21.08;4.10;;;;;;;14.61;63.17;102393.94;5029355;28;20032;-73
2023/05/29 07:49:56;;;;;;;18.60;4.30;;;;;;;14.65;61.45;102393.63;5010674;28;20474;-73
2023/05/29 07:52:23;;;;;;;11.35;3.60;;;;;;;14.87;61.52;102393.06;5028658;28;20496;-74
2023/05/29 07:54:48;;;;;;;15.75;3.70;;;;;;;14.89;60.13;102396.47;5028622;28;20105;-74
2023/05/29 07:57:14;;;;;;;20.00;3.75;;;;;;;14.94;59.20;102399.66;5028756;28;20104;-74
2023/05/29 07:59:43;;;;;;;18.17;4.05;;;;;;;14.94;60.34;102398.81;5028362;28;20489;-74
2023/05/29 08:02:08;;;;;;;16.95;4.22;;;;;;;14.83;59.46;102385.44;5010601;28;20724;-73
2023/05/29 08:04:34;;;;;;;13.25;3.63;;;;;;;15.11;59.90;102400.28;5029065;28;20021;-74
2023/05/29 08:07:05;;;;;;;16.20;4.05;;;;;;;15.12;59.16;102399.34;5027265;28;20389;-73
2023/05/29 08:09:31;;;;;;;15.23;3.42;;;;;;;15.15;59.16;102396.47;5028892;28;20043;-74
2023/05/29 08:11:57;;;;;;;15.25;3.70;;;;;;;15.38;59.07;102398.41;5010835;28;20125;-74
2023/05/29 08:14:22;;;;;;;16.08;4.05;;;;;;;15.49;59.15;102405.63;5027656;28;20393;-74
2023/05/29 08:16:48;;;;;;;19.63;4.60;;;;;;;15.66;59.09;102403.53;5027197;28;20056;-74
2023/05/29 08:19:13;;;;;;;16.08;4.43;;;;;;;15.67;57.78;102399.06;5010604;28;20103;-74
2023/05/29 08:21:39;;;;;;;12.40;3.65;;;;;;;15.94;57.42;102406.84;5026909;28;20474;-74
2023/05/29 08:24:05;;;;;;;15.45;3.90;;;;;;;16.00;56.40;102406.41;5026666;28;20505;-74
2023/05/29 08:26:30;;;;;;;15.10;3.67;;;;;;;16.09;55.74;102404.91;5027472;28;20026;-73
2023/05/29 08:28:56;;;;;;;17.70;3.80;;;;;;;16.30;56.12;102403.34;5010176;28;20026;-74
2023/05/29 08:31:23;;;;;;;14.68;3.55;;;;;;;16.21;56.21;102418.16;5027380;28;20036;-73
2023/05/29 08:33:49;;;;;;;20.50;4.68;;;;;;;16.20;54.23;102419.09;5029130;28;20025;-74
2023/05/29 08:36:15;;;;;;;14.43;3.45;;;;;;;16.35;54.20;102416.28;5027498;28;20026;-74
2023/05/29 08:38:40;;;;;;;14.98;3.53;;;;;;;16.30;54.48;102422.78;5032870;28;20029;-73
2023/05/29 08:41:08;;;;;;;11.70;3.42;;;;;;;16.25;53.81;102419.63;5032961;28;20428;-73
2023/05/29 08:43:34;;;;;;;13.93;3.72;;;;;;;16.29;53.99;102418.44;5031239;28;20030;-73
2023/05/29 08:46:02;;;;;;;13.82;3.67;;;;;;;16.19;54.14;102417.41;5032864;28;20988;-73
2023/05/29 08:48:30;;;;;;;14.15;3.75;;;;;;;16.26;53.70;102423.97;5033661;28;20117;-73
2023/05/29 08:50:57;;;;;;;19.08;4.13;;;;;;;16.16;54.31;102414.97;5011412;28;20022;-73
2023/05/29 08:53:24;;;;;;;15.50;3.50;;;;;;;16.43;54.36;102421.91;5013400;28;20025;-74
2023/05/29 08:55:51;;;;;;;15.32;3.25;;;;;;;16.73;53.66;102421.44;5011336;28;20821;-73
2023/05/29 08:58:17;;;;;;;13.55;3.50;;;;;;;16.79;53.43;102411.19;5010838;28;20021;-74
2023/05/29 09:00:46;;;;;;;13.68;4.00;;;;;;;16.80;53.14;102422.69;5012519;28;20053;-74
2023/05/29 09:03:12;;;;;;;14.20;3.45;;;;;;;16.99;53.57;102417.69;5011551;28;20406;-73
2023/05/29 09:05:40;;;;;;;15.07;3.47;;;;;;;17.20;52.71;102420.50;5012106;28;20112;-74
2023/05/29 09:08:07;;;;;;;13.02;3.08;;;;;;;17.17;52.28;102415.41;5009846;28;20033;-74
2023/05/29 09:10:32;;;;;;;10.68;3.20;;;;;;;17.20;51.73;102420.50;4994275;28;20028;-74
2023/05/29 09:13:02;;;;;;;10.82;3.08;;;;;;;17.10;51.49;102417.72;4994148;28;20430;-74
2023/05/29 09:15:28;;;;;;;12.15;3.17;;;;;;;17.00;50.80;102418.53;5012358;28;20065;-75
2023/05/29 09:17:55;;;;;;;13.30;3.42;;;;;;;16.91;51.56;102417.44;5010909;28;20046;-74
2023/05/29 09:20:24;;;;;;;12.25;3.22;;;;;;;17.05;52.48;102427.00;5011888;28;20406;-74
2023/05/29 09:22:54;;;;;;;15.90;3.30;;;;;;;16.99;51.71;102423.00;5011353;28;20130;-73
2023/05/29 09:25:24;;;;;;;11.00;2.90;;;;;;;17.29;51.89;102418.97;5013169;28;20113;-73
2023/05/29 09:28:08;;;;;;;14.55;3.60;;;;;;;17.39;51.88;102419.94;5031430;28;20436;-74
2023/05/29 09:30:43;;;;;;;13.88;3.03;;;;;;;17.55;50.01;102431.94;5030730;28;20029;-73
2023/05/29 09:33:10;;;;;;;10.85;3.10;;;;;;;17.74;50.28;102419.88;5031393;28;20079;-73
2023/05/29 09:35:44;;;;;;;11.95;3.30;;;;;;;17.75;48.97;102410.91;5031005;28;20017;-73
2023/05/29 09:38:11;;;;;;;12.77;3.60;;;;;;;17.89;49.12;102408.00;5031343;28;20021;-73
2023/05/29 09:40:38;;;;;;;9.70;3.53;;;;;;;17.81;48.77;102413.09;5014568;28;20087;-73
2023/05/29 09:43:07;;;;;;;17.05;3.38;;;;;;;17.83;48.31;102413.81;5031712;28;20099;-73
2023/05/29 09:45:34;;;;;;;11.20;3.28;;;;;;;17.88;47.64;102416.97;5031695;28;20061;-73
2023/05/29 09:48:02;;;;;;;11.82;2.88;;;;;;;18.00;47.69;102405.31;5013872;28;20032;-73
2023/05/29 09:50:29;;;;;;;12.88;3.67;;;;;;;18.00;46.99;102410.63;5031449;28;20483;-74
2023/05/29 09:52:56;;;;;;;10.68;3.92;;;;;;;18.20;48.74;102410.84;5013179;28;20029;-73
2023/05/29 09:55:25;;;;;;;13.55;2.85;;;;;;;18.56;48.49;102412.31;5032312;28;20403;-73
2023/05/29 09:57:53;;;;;;;11.07;3.10;;;;;;;18.39;47.22;102408.38;5031796;28;20059;-74
2023/05/29 10:00:19;;;;;;;11.43;3.17;;;;;;;18.24;47.57;102410.47;5030774;28;20025;-73
2023/05/29 10:02:45;;;;;;;12.25;3.40;;;;;;;18.16;47.42;102405.78;5031226;28;20371;-73
2023/05/29 10:05:15;;;;;;;13.40;3.30;;;;;;;18.36;48.11;102405.97;5012333;28;20082;-74
2023/05/29 10:07:46;;;;;;;12.05;3.38;;;;;;;18.54;48.86;102408.94;5029967;28;20025;-74
2023/05/29 10:10:13;;;;;;;11.18;3.40;;;;;;;18.61;47.91;102410.97;5030439;28;20053;-74
2023/05/29 10:12:42;;;;;;;10.85;2.80;;;;;;;18.65;47.00;102411.59;5030858;28;20030;-73
2023/05/29 10:15:18;;;;;;;10.32;3.35;;;;;;;18.48;46.97;102410.31;5029509;28;20072;-73
2023/05/29 10:17:57;;;;;;;14.93;3.80;;;;;;;18.70;47.34;102412.06;5030796;28;20025;-73
2023/05/29 10:20:22;;;;;;;13.50;3.47;;;;;;;18.49;46.55;102409.31;5029901;28;20026;-73
2023/05/29 10:22:51;;;;;;;13.98;3.45;;;;;;;18.57;47.33;102401.53;5030506;28;20029;-74
2023/05/29 10:25:23;;;;;;;14.60;3.20;;;;;;;18.73;47.04;102399.31;5030170;28;20397;-75
2023/05/29 10:27:49;;;;;;;10.20;3.20;;;;;;;18.73;47.47;102398.47;5011750;28;20049;-74
2023/05/29 10:30:40;;;;;;;11.88;2.90;;;;;;;18.70;47.77;102404.06;5030350;28;20025;-73
2023/05/29 10:33:27;;;;;;;16.20;3.72;;;;;;;18.61;46.63;102388.78;5028606;28;20025;-73
2023/05/29 10:36:07;;;;;;;12.98;3.38;;;;;;;18.77;46.25;102394.56;5030040;28;20029;-73
2023/05/29 10:38:32;;;;;;;10.40;3.28;;;;;;;18.76;46.37;102384.88;5031522;28;20036;-75
2023/05/29 10:41:26;;;;;;;13.98;3.20;;;;;;;19.04;47.02;102391.38;5013091;28;20393;-73
2023/05/29 10:43:54;;;;;;;11.43;2.75;;;;;;;19.00;45.71;102397.97;5030901;28;20033;-75
2023/05/29 10:46:19;;;;;;;11.30;3.28;;;;;;;19.00;45.67;102389.97;5013293;28;20642;-75
2023/05/29 10:48:48;;;;;;;11.98;3.30;;;;;;;18.86;46.39;102388.47;5029975;28;20057;-75
2023/05/29 10:51:29;;;;;;;12.55;3.17;;;;;;;19.12;47.40;102393.41;5031053;28;20028;-75
2023/05/29 10:53:54;;;;;;;13.02;3.17;;;;;;;19.34;46.88;102393.25;5012836;28;20034;-75
2023/05/29 10:56:24;;;;;;;10.20;3.00;;;;;;;19.34;45.02;102391.44;5030336;28;20024;-74
2023/05/29 10:58:54;;;;;;;12.32;3.05;;;;;;;19.40;45.34;102393.56;5030386;28;20033;-74
2023/05/29 11:01:27;;;;;;;10.82;3.42;;;;;;;19.50;44.54;102390.94;5029453;28;20425;-74
2023/05/29 11:04:15;;;;;;;13.05;3.25;;;;;;;19.63;45.77;102394.28;5011202;28;20029;-74
2023/05/29 11:06:41;;;;;;;13.18;3.50;;;;;;;19.56;44.73;102386.91;5029848;28;20053;-75
2023/05/29 11:09:26;;;;;;;9.77;2.80;;;;;;;19.81;45.09;102381.09;5028617;28;20036;-73
2023/05/29 11:12:13;;;;;;;11.50;3.15;;;;;;;19.97;45.47;102378.75;5029463;28;20068;-74
2023/05/29 11:14:48;;;;;;;13.27;3.50;;;;;;;20.01;44.96;102382.00;5029916;28;20090;-73
2023/05/29 11:17:55;;;;;;;9.98;2.75;;;;;;;19.80;44.50;102376.75;5010660;28;20036;-74
2023/05/29 11:20:53;;;;;;;9.70;3.38;;;;;;;19.80;44.71;102379.41;5011525;28;20132;-74
2023/05/29 11:23:20;;;;;;;9.65;3.42;;;;;;;19.86;44.88;102378.88;5027125;28;20044;-74